createdAt,value
2023-01-29T00:00:52.414Z,77.83
2023-01-29T00:02:54.114Z,76.96
2023-01-29T00:04:58.903Z,76.96
2023-01-29T00:07:00.879Z,76.23
2023-01-29T00:09:02.473Z,75.92
2023-01-29T00:11:07.812Z,75.93
2023-01-29T00:13:09.419Z,75.07
2023-01-29T00:15:11.003Z,74.97
2023-01-29T00:17:12.590Z,74.74
2023-01-29T00:19:14.287Z,74.63
2023-01-29T00:21:18.152Z,74.13
2023-01-29T00:23:19.787Z,74.22
2023-01-29T00:25:21.511Z,74.55
2023-01-29T00:27:23.074Z,74.08
2023-01-29T00:29:24.704Z,74.31
2023-01-29T00:31:26.431Z,74.09
2023-01-29T00:33:29.293Z,74.17
2023-01-29T00:35:31.406Z,74.54
2023-01-29T00:37:33.052Z,74.31
2023-01-29T00:39:47.508Z,74.14
2023-01-29T00:42:08.141Z,74.04
2023-01-29T00:44:27.946Z,74.17
2023-01-29T00:46:29.583Z,74.71
2023-01-29T00:48:31.172Z,73.87
2023-01-29T00:50:32.902Z,74.41
2023-01-29T00:52:36.452Z,73.91
2023-01-29T00:54:38.078Z,73.86
2023-01-29T00:56:39.928Z,74.49
2023-01-29T00:58:41.544Z,75.83
2023-01-29T01:00:43.189Z,75.54
2023-01-29T01:03:03.689Z,76.07
2023-01-29T01:05:07.779Z,75.76
2023-01-29T01:07:09.482Z,75.44
2023-01-29T01:09:30.094Z,74.87
2023-01-29T01:11:33.883Z,74.65
2023-01-29T01:13:35.409Z,74.98
2023-01-29T01:15:39.109Z,74.50
2023-01-29T01:17:40.793Z,74.24
2023-01-29T01:19:42.375Z,74.67
2023-01-29T01:21:45.586Z,74.84
2023-01-29T01:23:47.809Z,74.34
2023-01-29T01:25:49.407Z,74.80
2023-01-29T01:30:00.406Z,74.90
2023-01-29T01:32:02.292Z,74.61
2023-01-29T01:34:04.100Z,74.51
2023-01-29T01:36:09.808Z,74.58
2023-01-29T01:38:11.575Z,74.43
2023-01-29T01:40:18.293Z,74.30
2023-01-29T01:42:20.398Z,73.87
2023-01-29T01:45:01.319Z,73.99
2023-01-29T01:47:02.962Z,73.90
2023-01-29T01:49:13.734Z,74.23
2023-01-29T01:51:16.807Z,74.42
2023-01-29T01:53:45.628Z,74.31
2023-01-29T01:55:53.786Z,74.72
2023-01-29T01:58:02.111Z,74.75
2023-01-29T02:00:13.078Z,75.30
2023-01-29T02:02:33.716Z,75.62
2023-01-29T02:04:53.845Z,76.65
2023-01-29T02:07:14.698Z,76.93
2023-01-29T02:09:35.701Z,77.23
2023-01-29T02:11:37.790Z,77.28
2023-01-29T02:13:40.327Z,77.50
2023-01-29T02:15:46.894Z,76.86
2023-01-29T02:17:48.612Z,76.48
2023-01-29T02:19:53.166Z,76.78
2023-01-29T02:21:57.567Z,76.59
2023-01-29T02:24:33.111Z,77.02
2023-01-29T02:26:46.579Z,76.88
2023-01-29T02:29:22.506Z,76.59
2023-01-29T02:31:35.407Z,76.79
2023-01-29T02:33:45.107Z,76.46
2023-01-29T02:35:56.411Z,76.60
2023-01-29T02:38:36.850Z,76.53
2023-01-29T02:41:04.499Z,76.67
2023-01-29T02:43:07.719Z,77.00
2023-01-29T02:45:23.098Z,77.15
2023-01-29T02:47:35.937Z,77.51
2023-01-29T02:49:49.083Z,77.55
2023-01-29T02:52:09.569Z,76.84
2023-01-29T02:54:21.878Z,77.50
2023-01-29T02:56:35.273Z,77.34
2023-01-29T02:58:41.689Z,77.11
2023-01-29T03:00:46.032Z,77.23
2023-01-29T03:03:01.204Z,77.27
2023-01-29T03:05:06.017Z,77.24
2023-01-29T03:07:10.755Z,77.36
2023-01-29T03:09:34.560Z,77.51
2023-01-29T03:11:41.495Z,77.56
2023-01-29T03:13:47.879Z,77.58
2023-01-29T03:15:56.958Z,77.64
2023-01-29T03:18:02.863Z,77.43
2023-01-29T03:20:08.321Z,77.41
2023-01-29T03:22:11.322Z,77.72
2023-01-29T03:24:32.696Z,77.63
2023-01-29T03:26:52.816Z,77.02
2023-01-29T03:29:12.942Z,77.08
2023-01-29T03:31:33.920Z,76.82
2023-01-29T03:33:59.876Z,76.68
2023-01-29T03:36:13.423Z,76.64
2023-01-29T03:38:16.031Z,76.46
2023-01-29T03:40:18.223Z,76.33
2023-01-29T03:42:31.319Z,76.27
2023-01-29T03:44:40.447Z,76.07
2023-01-29T03:46:53.179Z,75.81
2023-01-29T03:48:59.392Z,76.22
2023-01-29T03:51:02.638Z,75.29
2023-01-29T03:53:27.414Z,75.61
2023-01-29T03:55:37.754Z,75.33
2023-01-29T03:57:54.613Z,75.23
2023-01-29T04:00:17.641Z,75.66
2023-01-29T04:02:35.347Z,75.75
2023-01-29T04:04:38.459Z,75.44
2023-01-29T04:06:42.177Z,75.78
2023-01-29T04:08:52.657Z,75.09
2023-01-29T04:10:57.551Z,75.52
2023-01-29T04:13:02.354Z,76.25
2023-01-29T04:15:06.265Z,77.32
2023-01-29T04:17:18.183Z,76.63
2023-01-29T04:19:20.307Z,77.01
2023-01-29T04:21:22.123Z,76.80
2023-01-29T04:23:26.030Z,76.35
2023-01-29T04:25:29.126Z,76.55
2023-01-29T04:28:00.112Z,76.28
2023-01-29T04:30:23.330Z,76.55
2023-01-29T04:32:31.290Z,76.84
2023-01-29T04:34:53.676Z,76.90
2023-01-29T04:37:16.990Z,76.74
2023-01-29T04:39:23.321Z,76.98
2023-01-29T04:41:30.633Z,76.85
2023-01-29T04:43:38.084Z,76.53
2023-01-29T04:45:45.520Z,76.09
2023-01-29T04:48:20.099Z,76.04
2023-01-29T04:50:35.870Z,76.32
2023-01-29T04:52:49.706Z,76.01
2023-01-29T04:54:51.342Z,76.07
2023-01-29T04:57:05.965Z,75.76
2023-01-29T04:59:11.907Z,75.63
2023-01-29T05:01:14.651Z,75.28
2023-01-29T05:03:16.647Z,75.70
2023-01-29T05:05:19.818Z,75.83
2023-01-29T05:07:22.538Z,75.89
2023-01-29T05:09:25.278Z,75.53
2023-01-29T05:11:26.902Z,75.38
2023-01-29T05:13:30.860Z,75.53
2023-01-29T05:15:35.924Z,75.31
2023-01-29T05:17:37.587Z,75.45
2023-01-29T05:19:39.236Z,75.47
2023-01-29T05:21:43.814Z,75.14
2023-01-29T05:23:53.264Z,75.57
2023-01-29T05:25:56.764Z,75.40
2023-01-29T05:28:04.849Z,75.46
2023-01-29T05:30:07.123Z,75.66
2023-01-29T05:32:11.357Z,75.37
2023-01-29T05:34:13.031Z,75.46
2023-01-29T05:36:14.675Z,75.41
2023-01-29T05:38:17.694Z,75.33
2023-01-29T05:40:19.516Z,75.21
2023-01-29T05:42:21.276Z,75.05
2023-01-29T05:44:22.878Z,75.01
2023-01-29T05:46:24.657Z,75.13
2023-01-29T05:48:28.848Z,75.25
2023-01-29T05:50:30.450Z,75.57
2023-01-29T05:52:32.189Z,75.47
2023-01-29T05:54:33.814Z,75.10
2023-01-29T05:56:35.363Z,75.45
2023-01-29T05:58:37.024Z,75.24
2023-01-29T06:00:39.094Z,75.33
2023-01-29T06:02:40.951Z,76.21
2023-01-29T06:04:42.599Z,76.43
2023-01-29T06:06:46.958Z,75.98
2023-01-29T06:08:48.628Z,76.37
2023-01-29T06:10:50.191Z,75.87
2023-01-29T06:12:51.770Z,76.17
2023-01-29T06:14:53.361Z,76.60
2023-01-29T06:16:54.932Z,76.29
2023-01-29T06:18:56.872Z,76.26
2023-01-29T06:21:02.775Z,76.34
2023-01-29T06:23:04.409Z,76.83
2023-01-29T06:25:06.770Z,76.67
2023-01-29T06:27:08.363Z,77.14
2023-01-29T06:29:10.208Z,77.01
2023-01-29T06:31:27.403Z,76.88
2023-01-29T06:33:33.309Z,77.10
2023-01-29T06:35:34.966Z,76.79
2023-01-29T06:37:36.717Z,76.91
2023-01-29T06:39:38.400Z,76.69
2023-01-29T06:41:39.982Z,76.76
2023-01-29T06:43:44.480Z,76.67
2023-01-29T06:45:50.433Z,76.98
2023-01-29T06:47:52.162Z,76.68
2023-01-29T06:49:53.755Z,76.90
2023-01-29T06:51:55.411Z,76.46
2023-01-29T06:53:57.138Z,76.34
2023-01-29T06:55:58.772Z,76.43
2023-01-29T06:58:00.603Z,76.47
2023-01-29T07:00:02.260Z,76.51
2023-01-29T07:02:04.181Z,76.14
2023-01-29T07:04:05.871Z,75.59
2023-01-29T07:06:08.256Z,76.02
2023-01-29T07:08:09.851Z,75.99
2023-01-29T07:10:11.714Z,75.75
2023-01-29T07:12:13.333Z,75.87
2023-01-29T07:14:14.948Z,75.95
2023-01-29T07:16:16.669Z,75.34
2023-01-29T07:18:18.276Z,75.49
2023-01-29T07:20:19.934Z,75.55
2023-01-29T07:22:21.579Z,75.36
2023-01-29T07:24:23.294Z,75.95
2023-01-29T07:26:24.966Z,75.80
2023-01-29T07:28:26.619Z,75.34
2023-01-29T07:30:28.459Z,75.18
2023-01-29T07:32:30.131Z,74.91
2023-01-29T07:34:31.763Z,75.04
2023-01-29T07:36:33.397Z,75.40
2023-01-29T07:38:35.024Z,74.99
2023-01-29T07:40:36.899Z,74.83
2023-01-29T07:42:39.973Z,75.07
2023-01-29T07:44:41.637Z,75.28
2023-01-29T07:46:43.544Z,75.06
2023-01-29T07:48:45.132Z,75.51
2023-01-29T07:50:54.944Z,74.95
2023-01-29T07:52:56.937Z,74.88
2023-01-29T07:54:58.574Z,74.60
2023-01-29T07:57:00.179Z,74.46
2023-01-29T07:59:01.824Z,74.58
2023-01-29T08:01:07.772Z,74.31
2023-01-29T08:03:18.150Z,74.45
2023-01-29T08:05:20.175Z,74.57
2023-01-29T08:07:21.808Z,74.58
2023-01-29T08:09:23.404Z,74.99
2023-01-29T08:11:25.049Z,74.83
2023-01-29T08:13:26.642Z,74.37
2023-01-29T08:15:28.751Z,74.96
2023-01-29T08:17:30.320Z,74.62
2023-01-29T08:19:32.208Z,75.53
2023-01-29T08:21:33.782Z,75.28
2023-01-29T08:23:35.480Z,74.59
2023-01-29T08:25:37.160Z,74.16
2023-01-29T08:27:38.862Z,74.09
2023-01-29T08:29:40.486Z,73.95
2023-01-29T08:31:42.120Z,73.56
2023-01-29T08:33:43.795Z,73.49
2023-01-29T08:35:50.470Z,73.80
2023-01-29T08:37:59.552Z,73.58
2023-01-29T08:40:01.402Z,73.77
2023-01-29T08:42:03.003Z,73.59
2023-01-29T08:44:04.788Z,73.19
2023-01-29T08:46:07.421Z,73.18
2023-01-29T08:48:09.793Z,72.74
2023-01-29T08:50:11.734Z,72.80
2023-01-29T08:52:13.358Z,73.27
2023-01-29T08:54:14.957Z,74.29
2023-01-29T08:56:16.557Z,74.40
2023-01-29T08:58:18.249Z,74.45
2023-01-29T09:00:20.247Z,74.85
2023-01-29T09:02:21.900Z,74.54
2023-01-29T09:04:23.629Z,73.44
2023-01-29T09:06:25.204Z,73.03
2023-01-29T09:08:26.920Z,72.70
2023-01-29T09:10:28.527Z,72.89
2023-01-29T09:12:30.148Z,72.56
2023-01-29T09:14:32.887Z,72.23
2023-01-29T09:16:34.585Z,72.52
2023-01-29T09:18:36.454Z,72.04
2023-01-29T09:20:38.347Z,72.30
2023-01-29T09:22:40.015Z,72.24
2023-01-29T09:24:41.649Z,72.90
2023-01-29T09:26:43.291Z,72.57
2023-01-29T09:28:44.978Z,72.10
2023-01-29T09:30:47.031Z,72.64
2023-01-29T09:32:56.022Z,72.67
2023-01-29T09:34:57.859Z,72.67
2023-01-29T09:36:59.388Z,73.38
2023-01-29T09:39:00.977Z,72.58
2023-01-29T09:41:23.766Z,72.25
2023-01-29T09:43:32.305Z,71.80
2023-01-29T09:45:34.340Z,72.13
2023-01-29T09:47:36.784Z,72.45
2023-01-29T09:49:43.788Z,71.88
2023-01-29T09:51:50.353Z,71.74
2023-01-29T09:53:58.983Z,72.54
2023-01-29T09:56:13.271Z,73.20
2023-01-29T09:58:17.502Z,73.02
2023-01-29T10:00:22.100Z,73.37
2023-01-29T10:02:38.754Z,72.76
2023-01-29T10:04:49.456Z,72.60
2023-01-29T10:07:19.814Z,73.45
2023-01-29T10:09:57.530Z,73.72
2023-01-29T10:12:20.897Z,73.19
2023-01-29T10:14:24.773Z,72.89
2023-01-29T10:16:48.116Z,73.36
2023-01-29T10:19:06.130Z,73.26
2023-01-29T10:21:44.840Z,74.59
2023-01-29T10:23:52.140Z,74.53
2023-01-29T10:25:54.347Z,74.14
2023-01-29T10:27:58.511Z,74.45
2023-01-29T10:30:02.333Z,74.09
2023-01-29T10:32:06.111Z,73.84
2023-01-29T10:34:21.509Z,74.33
2023-01-29T10:36:28.092Z,73.84
2023-01-29T10:38:41.792Z,73.89
2023-01-29T10:40:56.767Z,73.69
2023-01-29T10:43:22.825Z,74.03
2023-01-29T10:45:32.513Z,74.19
2023-01-29T10:47:37.068Z,74.43
2023-01-29T10:50:00.002Z,74.54
2023-01-29T10:52:23.055Z,74.03
2023-01-29T10:54:34.545Z,74.61
2023-01-29T10:56:45.006Z,74.63
2023-01-29T10:58:52.487Z,74.59
2023-01-29T11:00:54.099Z,74.49
2023-01-29T11:02:55.857Z,74.80
2023-01-29T11:04:57.566Z,74.99
2023-01-29T11:06:59.693Z,74.49
2023-01-29T11:09:19.570Z,74.80
2023-01-29T11:11:22.861Z,74.94
2023-01-29T11:13:29.089Z,74.61
2023-01-29T11:15:33.879Z,74.83
2023-01-29T11:17:35.447Z,75.00
2023-01-29T11:19:37.045Z,74.28
2023-01-29T11:22:13.939Z,74.18
2023-01-29T11:24:17.345Z,73.14
2023-01-29T11:26:22.331Z,73.43
2023-01-29T11:28:40.334Z,73.22
2023-01-29T11:30:42.107Z,73.66
2023-01-29T11:32:43.805Z,73.17
2023-01-29T11:34:58.609Z,72.88
2023-01-29T11:37:16.768Z,73.03
2023-01-29T11:39:23.107Z,73.11
2023-01-29T11:41:25.549Z,73.27
2023-01-29T11:43:27.087Z,73.04
2023-01-29T11:45:32.368Z,73.09
2023-01-29T11:47:33.988Z,73.06
2023-01-29T11:49:35.961Z,72.97
2023-01-29T11:51:38.654Z,73.12
2023-01-29T11:53:45.550Z,72.14
2023-01-29T11:55:50.871Z,72.34
2023-01-29T11:58:07.925Z,73.45
2023-01-29T12:00:28.803Z,73.04
2023-01-29T12:02:37.516Z,73.31
2023-01-29T12:04:39.647Z,73.20
2023-01-29T12:06:44.290Z,72.88
2023-01-29T12:08:54.779Z,72.90
2023-01-29T12:11:09.239Z,72.92
2023-01-29T12:13:10.978Z,73.10
2023-01-29T12:15:18.524Z,73.03
2023-01-29T12:17:24.038Z,73.48
2023-01-29T12:19:36.274Z,73.51
2023-01-29T12:21:50.648Z,73.38
2023-01-29T12:24:02.390Z,73.55
2023-01-29T12:26:16.186Z,73.34
2023-01-29T12:28:34.766Z,72.62
2023-01-29T12:31:09.459Z,72.66
2023-01-29T12:33:39.929Z,73.34
2023-01-29T12:35:48.619Z,72.46
2023-01-29T12:38:19.055Z,72.61
2023-01-29T12:40:21.969Z,71.78
2023-01-29T12:42:24.637Z,71.88
2023-01-29T12:44:32.149Z,71.70
2023-01-29T12:46:39.177Z,72.24
2023-01-29T12:48:43.057Z,72.33
2023-01-29T12:50:46.271Z,72.20
2023-01-29T12:52:56.186Z,71.64
2023-01-29T12:55:07.353Z,71.05
2023-01-29T12:57:15.685Z,71.47
2023-01-29T12:59:32.158Z,71.83
2023-01-29T13:01:37.333Z,72.42
2023-01-29T13:04:00.230Z,72.50
2023-01-29T13:06:16.045Z,73.44
2023-01-29T13:08:27.236Z,73.09
2023-01-29T13:10:34.281Z,72.14
2023-01-29T13:12:36.328Z,72.48
2023-01-29T13:15:06.493Z,72.74
2023-01-29T13:17:14.848Z,72.29
2023-01-29T13:19:28.221Z,72.41
2023-01-29T13:21:35.378Z,72.63
2023-01-29T13:23:47.144Z,72.21
2023-01-29T13:25:52.346Z,72.22
2023-01-29T13:27:53.991Z,72.63
2023-01-29T13:29:56.614Z,73.91
2023-01-29T13:32:00.451Z,74.81
2023-01-29T13:34:02.016Z,75.89
2023-01-29T13:36:04.139Z,76.29
2023-01-29T13:38:06.439Z,76.55
2023-01-29T13:40:18.654Z,76.84
2023-01-29T13:42:23.976Z,76.72
2023-01-29T13:44:37.041Z,76.85
2023-01-29T13:46:40.730Z,77.11
2023-01-29T13:48:43.963Z,77.62
2023-01-29T13:50:45.859Z,77.69
2023-01-29T13:52:58.393Z,77.17
2023-01-29T13:55:02.081Z,77.86
2023-01-29T13:57:03.794Z,77.54
2023-01-29T13:59:06.341Z,77.60
2023-01-29T14:01:08.005Z,78.02
2023-01-29T14:03:11.762Z,77.80
2023-01-29T14:05:31.894Z,77.37
2023-01-29T14:07:45.774Z,77.30
2023-01-29T14:09:47.325Z,77.25
2023-01-29T14:11:49.000Z,76.30
2023-01-29T14:13:52.396Z,75.76
2023-01-29T14:15:57.136Z,76.15
2023-01-29T14:18:18.908Z,76.72
2023-01-29T14:20:25.775Z,76.69
2023-01-29T14:22:30.330Z,76.67
2023-01-29T14:24:31.981Z,77.54
2023-01-29T14:26:45.812Z,77.02
2023-01-29T14:29:06.740Z,78.27
2023-01-29T14:31:08.742Z,78.99
2023-01-29T14:33:36.607Z,79.19
2023-01-29T14:35:38.226Z,79.49
2023-01-29T14:37:41.138Z,78.53
2023-01-29T14:39:47.376Z,77.75
2023-01-29T14:41:50.916Z,77.67
2023-01-29T14:44:30.778Z,77.35
2023-01-29T14:46:35.405Z,76.97
2023-01-29T14:48:39.248Z,76.74
2023-01-29T14:50:44.079Z,76.65
2023-01-29T14:52:47.113Z,76.37
2023-01-29T14:54:48.925Z,75.66
2023-01-29T14:56:58.475Z,74.76
2023-01-29T14:59:13.180Z,74.36
2023-01-29T15:01:24.248Z,74.24
2023-01-29T15:03:44.980Z,73.88
2023-01-29T15:05:48.254Z,73.83
2023-01-29T15:07:58.819Z,74.29
2023-01-29T15:10:27.491Z,74.30
2023-01-29T15:12:53.032Z,74.15
2023-01-29T15:15:04.899Z,74.32
2023-01-29T15:17:09.579Z,74.27
2023-01-29T15:19:37.202Z,73.81
2023-01-29T15:21:38.958Z,73.73
2023-01-29T15:23:41.073Z,73.74
2023-01-29T15:25:50.093Z,73.71
2023-01-29T15:27:52.378Z,73.98
2023-01-29T15:30:03.199Z,73.71
2023-01-29T15:32:05.213Z,73.96
2023-01-29T15:34:07.812Z,74.59
2023-01-29T15:36:18.878Z,74.34
2023-01-29T15:38:26.540Z,74.58
2023-01-29T15:40:28.659Z,73.84
2023-01-29T15:42:43.874Z,74.19
2023-01-29T15:44:46.675Z,74.36
2023-01-29T15:46:54.001Z,74.89
2023-01-29T15:48:57.937Z,74.21
2023-01-29T15:50:59.446Z,74.46
2023-01-29T15:53:04.463Z,73.98
2023-01-29T15:55:07.319Z,74.50
2023-01-29T15:57:17.465Z,75.17
2023-01-29T15:59:25.364Z,76.54
2023-01-29T16:01:28.103Z,76.99
2023-01-29T16:03:32.463Z,77.91
2023-01-29T16:05:34.223Z,78.28
2023-01-29T16:07:36.155Z,79.15
2023-01-29T16:09:38.116Z,79.52
2023-01-29T16:11:40.451Z,79.41
2023-01-29T16:13:44.221Z,78.89
2023-01-29T16:16:00.429Z,78.72
2023-01-29T16:18:05.302Z,77.76
2023-01-29T16:20:20.435Z,76.92
2023-01-29T16:22:22.026Z,77.14
2023-01-29T16:24:25.061Z,77.45
2023-01-29T16:26:29.411Z,76.38
2023-01-29T16:28:31.624Z,76.46
2023-01-29T16:30:33.464Z,76.10
2023-01-29T16:32:35.496Z,77.62
2023-01-29T16:34:50.063Z,77.76
2023-01-29T16:36:53.501Z,78.22
2023-01-29T16:39:01.132Z,77.57
2023-01-29T16:41:16.584Z,76.71
2023-01-29T16:43:18.181Z,76.38
2023-01-29T16:45:28.887Z,77.09
2023-01-29T16:47:34.516Z,77.05
2023-01-29T16:49:39.166Z,76.61
2023-01-29T16:51:40.864Z,76.24
2023-01-29T16:53:55.435Z,76.29
2023-01-29T16:56:02.274Z,75.75
2023-01-29T16:58:12.863Z,75.14
2023-01-29T17:00:26.976Z,75.33
2023-01-29T17:02:33.287Z,75.03
2023-01-29T17:04:34.867Z,74.99
2023-01-29T17:06:37.009Z,74.97
2023-01-29T17:08:39.087Z,74.61
2023-01-29T17:10:47.242Z,74.13
2023-01-29T17:12:54.802Z,73.68
2023-01-29T17:15:31.622Z,73.84
2023-01-29T17:17:36.163Z,73.71
2023-01-29T17:19:37.753Z,73.43
2023-01-29T17:21:39.615Z,72.89
2023-01-29T17:23:41.253Z,72.66
2023-01-29T17:25:42.903Z,72.08
2023-01-29T17:27:51.460Z,72.23
2023-01-29T17:29:53.689Z,71.86
2023-01-29T17:31:56.131Z,71.49
2023-01-29T17:33:57.811Z,71.80
2023-01-29T17:35:59.745Z,71.88
2023-01-29T17:38:01.367Z,72.21
2023-01-29T17:40:05.244Z,72.84
2023-01-29T17:42:12.048Z,73.39
2023-01-29T17:44:13.817Z,73.87
2023-01-29T17:46:17.110Z,73.83
2023-01-29T17:48:25.664Z,74.85
2023-01-29T17:50:29.526Z,74.80
2023-01-29T17:52:32.257Z,74.40
2023-01-29T17:54:33.853Z,75.21
2023-01-29T17:56:35.533Z,75.01
2023-01-29T17:58:37.229Z,75.25
2023-01-29T18:00:38.844Z,75.30
2023-01-29T18:02:40.432Z,75.10
2023-01-29T18:04:42.045Z,74.92
2023-01-29T18:06:45.513Z,75.14
2023-01-29T18:08:47.148Z,75.49
2023-01-29T18:10:48.780Z,75.61
2023-01-29T18:12:50.694Z,74.85
2023-01-29T18:14:52.658Z,74.87
2023-01-29T18:16:57.152Z,74.42
2023-01-29T18:18:58.951Z,73.56
2023-01-29T18:21:00.551Z,72.79
2023-01-29T18:23:04.499Z,73.28
2023-01-29T18:25:06.216Z,73.52
2023-01-29T18:27:08.618Z,73.89
2023-01-29T18:29:10.217Z,75.30
2023-01-29T18:31:13.957Z,76.26
2023-01-29T18:33:16.511Z,76.84
2023-01-29T18:35:18.531Z,77.15
2023-01-29T18:37:20.629Z,77.32
2023-01-29T18:39:22.300Z,78.53
2023-01-29T18:41:24.048Z,78.94
2023-01-29T18:43:26.347Z,79.60
2023-01-29T18:45:29.109Z,79.17
2023-01-29T18:47:30.816Z,79.53
2023-01-29T18:49:32.567Z,78.47
2023-01-29T18:51:34.708Z,78.55
2023-01-29T18:53:36.371Z,78.40
2023-01-29T18:55:38.087Z,77.89
2023-01-29T18:58:28.983Z,77.14
2023-01-29T19:00:02.885Z,76.95
2023-01-29T19:02:04.606Z,76.73
2023-01-29T19:04:06.387Z,76.79
2023-01-29T19:06:09.878Z,76.47
2023-01-29T19:08:11.534Z,76.89
2023-01-29T19:10:13.227Z,76.18
2023-01-29T19:12:14.785Z,76.08
2023-01-29T19:14:16.372Z,77.06
2023-01-29T19:16:18.049Z,77.50
2023-01-29T19:18:20.524Z,77.17
2023-01-29T19:20:22.180Z,76.39
2023-01-29T19:22:24.040Z,76.03
2023-01-29T19:24:25.693Z,76.84
2023-01-29T19:26:27.381Z,78.04
2023-01-29T19:28:29.097Z,78.36
2023-01-29T19:30:30.802Z,79.27
2023-01-29T19:32:32.510Z,79.86
2023-01-29T19:34:34.351Z,80.09
2023-01-29T19:36:36.647Z,80.07
2023-01-29T19:38:38.942Z,80.79
2023-01-29T19:40:40.932Z,80.64
2023-01-29T19:42:42.580Z,80.18
2023-01-29T19:44:45.700Z,79.91
2023-01-29T19:46:47.459Z,80.34
2023-01-29T19:48:49.099Z,80.55
2023-01-29T19:50:53.975Z,81.07
2023-01-29T19:52:56.432Z,80.83
2023-01-29T19:54:58.211Z,80.63
2023-01-29T19:56:59.834Z,80.50
2023-01-29T19:59:01.483Z,79.98
2023-01-29T20:01:13.017Z,80.15
2023-01-29T20:03:14.851Z,80.60
2023-01-29T20:05:18.388Z,80.49
2023-01-29T20:07:20.134Z,80.57
2023-01-29T20:09:21.734Z,79.79
2023-01-29T20:11:23.992Z,79.67
2023-01-29T20:13:25.618Z,78.35
2023-01-29T20:15:27.227Z,77.33
2023-01-29T20:17:29.028Z,76.27
2023-01-29T20:19:30.613Z,75.86
2023-01-29T20:21:32.350Z,75.99
2023-01-29T20:23:38.094Z,75.53
2023-01-29T20:25:40.594Z,75.81
2023-01-29T20:27:42.197Z,75.75
2023-01-29T20:29:45.393Z,75.04
2023-01-29T20:31:47.118Z,75.09
2023-01-29T20:33:48.832Z,76.28
2023-01-29T20:35:57.302Z,77.35
2023-01-29T20:37:59.205Z,77.69
2023-01-29T20:40:00.822Z,78.09
2023-01-29T20:42:02.472Z,78.44
2023-01-29T20:44:04.131Z,78.02
2023-01-29T20:46:05.954Z,77.69
2023-01-29T20:48:08.094Z,76.40
2023-01-29T20:50:13.147Z,76.15
2023-01-29T20:52:14.820Z,74.92
2023-01-29T20:54:16.543Z,74.25
2023-01-29T20:56:18.591Z,74.07
2023-01-29T20:58:33.961Z,73.54
2023-01-29T21:00:35.637Z,73.72
2023-01-29T21:02:37.288Z,73.42
2023-01-29T21:04:38.828Z,73.54
2023-01-29T21:06:40.443Z,73.24
2023-01-29T21:08:42.208Z,73.42
2023-01-29T21:10:45.258Z,74.21
2023-01-29T21:12:46.952Z,74.30
2023-01-29T21:14:48.538Z,74.03
2023-01-29T21:16:50.200Z,73.79
2023-01-29T21:18:55.243Z,73.57
2023-01-29T21:20:56.873Z,73.14
2023-01-29T21:22:58.547Z,73.08
2023-01-29T21:25:00.248Z,72.18
2023-01-29T21:27:01.831Z,71.59
2023-01-29T21:29:03.754Z,71.13
2023-01-29T21:31:11.079Z,70.78
2023-01-29T21:33:12.681Z,70.45
2023-01-29T21:35:15.140Z,70.33
2023-01-29T21:37:16.805Z,70.14
2023-01-29T21:39:20.649Z,69.80
2023-01-29T21:41:42.100Z,68.93
2023-01-29T21:43:45.042Z,69.54
2023-01-29T21:45:46.631Z,69.43
2023-01-29T21:47:48.315Z,69.20
2023-01-29T21:49:49.966Z,69.13
2023-01-29T21:51:51.742Z,68.95
2023-01-29T21:53:53.351Z,69.02
2023-01-29T21:56:02.161Z,69.38
2023-01-29T21:58:04.417Z,69.31
2023-01-29T22:00:06.688Z,68.85
2023-01-29T22:02:14.020Z,69.41
2023-01-29T22:04:15.778Z,70.48
2023-01-29T22:06:17.420Z,70.41
2023-01-29T22:08:20.558Z,70.45
2023-01-29T22:10:22.544Z,70.50
2023-01-29T22:12:24.321Z,71.72
2023-01-29T22:14:26.140Z,72.67
2023-01-29T22:16:29.895Z,74.08
2023-01-29T22:18:31.665Z,74.42
2023-01-29T22:20:33.296Z,74.85
2023-01-29T22:22:34.977Z,74.21
2023-01-29T22:24:36.573Z,74.55
2023-01-29T22:26:38.237Z,74.55
2023-01-29T22:28:39.874Z,75.52
2023-01-29T22:30:41.688Z,76.54
2023-01-29T22:32:43.379Z,76.32
2023-01-29T22:34:44.951Z,75.52
2023-01-29T22:36:46.566Z,74.88
2023-01-29T22:38:48.153Z,74.98
2023-01-29T22:40:51.223Z,74.87
2023-01-29T22:42:52.858Z,74.53
2023-01-29T22:44:54.456Z,74.41
2023-01-29T22:46:56.261Z,74.83
2023-01-29T22:48:57.900Z,74.41
2023-01-29T22:51:13.755Z,74.35
2023-01-29T22:53:15.491Z,73.93
2023-01-29T22:55:17.545Z,74.17
2023-01-29T22:57:19.857Z,73.83
2023-01-29T22:59:21.653Z,73.38
2023-01-29T23:01:25.630Z,73.03
2023-01-29T23:03:27.291Z,72.21
2023-01-29T23:05:28.875Z,71.31
2023-01-29T23:07:30.480Z,71.01
2023-01-29T23:09:32.089Z,70.59
2023-01-29T23:11:33.879Z,70.30
2023-01-29T23:13:35.409Z,69.73
2023-01-29T23:15:36.960Z,69.48
2023-01-29T23:17:39.738Z,69.93
2023-01-29T23:19:41.300Z,69.85
2023-01-29T23:21:42.897Z,69.22
2023-01-29T23:23:45.180Z,69.18
2023-01-29T23:26:05.432Z,69.71
2023-01-29T23:28:07.048Z,70.18
2023-01-29T23:30:09.656Z,69.62
2023-01-29T23:32:13.231Z,69.87
2023-01-29T23:34:15.254Z,70.32
2023-01-29T23:36:17.157Z,70.59
2023-01-29T23:38:18.738Z,70.53
2023-01-29T23:40:20.372Z,70.70
2023-01-29T23:42:21.989Z,70.46
2023-01-29T23:44:23.750Z,69.92
2023-01-29T23:46:25.403Z,69.83
2023-01-29T23:48:27.026Z,69.54
2023-01-29T23:50:28.614Z,69.56
2023-01-29T23:52:30.251Z,69.19
2023-01-29T23:54:31.807Z,69.61
2023-01-29T23:56:33.365Z,69.26
2023-01-29T23:58:35.172Z,69.54
